Time;durP1;ratioP1;P1;durP2;ratioP2;P2;SDS_P1;SDS_P2;PMS_P1;PMS_P2;Temp;Humidity;BMP_temperature;BMP_pressure;BME280_temperature;BME280_humidity;BME280_pressure;Samples;Min_cycle;Max_cycle;Signal;HPM_P1;HPM_P2
2022/04/16 00:00:55;;;;;;;;;;;8.00;99.90;;;;;;4986567;28;20352;-74
2022/04/16 00:03:22;;;;;;;;;;;8.00;99.90;;;;;;4995270;28;19926;-76
2022/04/16 00:05:51;;;;;;;;;;;8.00;99.90;;;;;;4994296;28;19937;-75
2022/04/16 00:08:20;;;;;;;;;;;7.90;99.90;;;;;;5005245;28;19925;-74
2022/04/16 00:10:47;;;;;;;;;;;7.90;99.90;;;;;;5010551;28;20356;-75
2022/04/16 00:13:14;;;;;;;;;;;7.90;99.90;;;;;;4985785;28;19930;-74
2022/04/16 00:15:43;;;;;;;;;;;7.80;99.90;;;;;;4982728;28;20011;-74
2022/04/16 00:18:10;;;;;;;;;;;7.80;99.90;;;;;;4989053;28;20022;-74
2022/04/16 00:20:37;;;;;;;;;;;7.80;99.90;;;;;;4992079;28;19930;-75
2022/04/16 00:23:04;;;;;;;;;;;7.80;99.90;;;;;;4986019;28;19934;-74
2022/04/16 00:25:34;;;;;;;;;;;7.80;99.90;;;;;;4995256;28;19926;-74
2022/04/16 00:28:01;;;;;;;;;;;7.80;99.90;;;;;;4978297;28;19948;-74
2022/04/16 00:30:27;;;;;;;;;;;7.70;99.90;;;;;;4990020;28;20021;-74
2022/04/16 00:32:55;;;;;;;;;;;7.70;99.90;;;;;;4983490;28;20041;-74
2022/04/16 00:35:22;;;;;;;;;;;7.60;99.90;;;;;;4988819;28;19930;-74
2022/04/16 00:37:49;;;;;;;;;;;7.60;99.90;;;;;;4986193;28;19932;-74
2022/04/16 00:40:15;;;;;;;;;;;7.60;99.90;;;;;;4993825;28;19926;-74
2022/04/16 00:42:44;;;;;;;;;;;7.50;99.90;;;;;;4985968;28;19930;-77
2022/04/16 00:45:12;;;;;;;;;;;7.50;99.90;;;;;;4995321;28;19937;-74
2022/04/16 00:47:38;;;;;;;;;;;7.50;99.90;;;;;;4990365;28;19930;-75
2022/04/16 00:50:06;;;;;;;;;;;7.50;99.90;;;;;;4990990;28;19926;-74
2022/04/16 00:52:32;;;;;;;;;;;7.50;99.90;;;;;;4998628;28;19937;-75
2022/04/16 00:54:59;;;;;;;;;;;7.40;99.90;;;;;;5012591;28;19926;-73
2022/04/16 00:57:26;;;;;;;;;;;7.40;99.90;;;;;;4983879;28;19969;-75
2022/04/16 00:59:54;;;;;;;;;;;7.40;99.90;;;;;;4989883;28;19941;-73
2022/04/16 01:02:21;;;;;;;;;;;7.40;99.90;;;;;;4981630;28;19926;-74
2022/04/16 01:04:48;;;;;;;;;;;7.40;99.90;;;;;;4980396;28;19933;-75
2022/04/16 01:07:21;;;;;;;;;;;7.40;99.90;;;;;;4977757;28;20403;-75
2022/04/16 01:09:48;;;;;;;;;;;7.40;99.90;;;;;;4986831;28;20020;-76
2022/04/16 01:12:15;;;;;;;;;;;7.30;99.90;;;;;;4997196;28;19973;-73
2022/04/16 01:14:42;;;;;;;;;;;7.40;99.90;;;;;;5015385;28;21203;-73
2022/04/16 01:17:10;;;;;;;;;;;7.30;99.90;;;;;;4996351;28;19926;-72
2022/04/16 01:19:37;;;;;;;;;;;7.30;99.90;;;;;;5004425;28;19960;-73
2022/04/16 01:22:05;;;;;;;;;;;7.30;99.90;;;;;;4988752;28;20350;-73
2022/04/16 01:24:34;;;;;;;;;;;7.30;99.90;;;;;;4992632;28;20021;-73
2022/04/16 01:27:01;;;;;;;;;;;7.30;99.90;;;;;;4986641;28;20026;-73
2022/04/16 01:29:27;;;;;;;;;;;7.20;99.90;;;;;;4997375;28;19926;-72
2022/04/16 01:31:54;;;;;;;;;;;7.30;99.90;;;;;;4984374;28;19930;-72
2022/04/16 01:34:21;;;;;;;;;;;7.20;99.90;;;;;;5006645;28;19926;-73
2022/04/16 01:36:48;;;;;;;;;;;7.20;99.90;;;;;;4985708;28;19926;-74
2022/04/16 01:39:15;;;;;;;;;;;7.30;99.90;;;;;;4995841;28;19926;-74
2022/04/16 01:41:43;;;;;;;;;;;7.20;99.90;;;;;;5013912;28;20442;-74
2022/04/16 01:44:11;;;;;;;;;;;7.20;99.90;;;;;;4994582;28;20403;-75
2022/04/16 01:46:38;;;;;;;;;;;7.20;99.90;;;;;;4997690;28;20331;-73
2022/04/16 01:49:05;;;;;;;;;;;7.20;99.90;;;;;;4992514;28;20517;-73
2022/04/16 01:51:31;;;;;;;;;;;7.20;99.90;;;;;;4998804;28;19969;-73
2022/04/16 01:53:58;;;;;;;;;;;7.20;99.90;;;;;;4998062;28;19936;-74
2022/04/16 01:56:25;;;;;;;;;;;7.20;99.90;;;;;;4990215;28;19926;-74
2022/04/16 01:58:53;;;;;;;;;;;7.20;99.90;;;;;;5014658;28;20408;-74
2022/04/16 02:01:22;;;;;;;;;;;7.10;99.90;;;;;;5006120;28;19933;-73
2022/04/16 02:03:48;;;;;;;;;;;7.10;99.90;;;;;;5031807;28;19943;-74
2022/04/16 02:06:17;;;;;;;;;;;7.10;99.90;;;;;;4982343;28;19929;-72
2022/04/16 02:08:44;;;;;;;;;;;7.10;99.90;;;;;;4981732;28;20020;-73
2022/04/16 02:11:11;;;;;;;;;;;7.10;99.90;;;;;;4995117;28;19926;-73
2022/04/16 02:13:38;;;;;;;;;;;7.10;99.90;;;;;;5008973;28;19926;-74
2022/04/16 02:16:07;;;;;;;;;;;7.10;99.90;;;;;;5003246;28;19932;-74
2022/04/16 02:18:33;;;;;;;;;;;7.00;99.90;;;;;;4995060;28;20022;-74
2022/04/16 02:21:00;;;;;;;;;;;7.00;99.90;;;;;;4995781;28;20296;-74
2022/04/16 02:23:26;;;;;;;;;;;7.00;99.90;;;;;;4998490;28;19929;-74
2022/04/16 02:25:53;;;;;;;;;;;7.10;99.90;;;;;;4990124;28;19988;-74
2022/04/16 02:28:21;;;;;;;;;;;7.00;99.90;;;;;;4974536;28;19979;-74
2022/04/16 02:30:48;;;;;;;;;;;7.00;99.90;;;;;;4987148;28;19926;-74
2022/04/16 02:33:16;;;;;;;;;;;7.00;99.90;;;;;;4978720;28;20024;-74
2022/04/16 02:35:42;;;;;;;;;;;7.00;99.90;;;;;;5002637;28;20503;-73
2022/04/16 02:38:09;;;;;;;;;;;7.00;99.90;;;;;;4974671;28;19948;-74
2022/04/16 02:40:36;;;;;;;;;;;7.00;99.90;;;;;;4989743;28;19933;-74
2022/04/16 02:43:02;;;;;;;;;;;7.00;99.90;;;;;;4987675;28;19930;-74
2022/04/16 02:48:13;;;;;;;;;;;7.00;99.90;;;;;;5003124;28;19941;-74
2022/04/16 02:50:41;;;;;;;;;;;7.00;99.90;;;;;;4987917;28;19933;-74
2022/04/16 02:53:08;;;;;;;;;;;7.00;99.90;;;;;;4993604;28;19926;-74
2022/04/16 02:55:34;;;;;;;;;;;7.00;99.90;;;;;;4981630;28;19930;-74
2022/04/16 02:58:02;;;;;;;;;;;6.90;99.90;;;;;;4988594;28;19926;-75
2022/04/16 03:00:28;;;;;;;;;;;6.80;99.90;;;;;;4988285;28;19933;-75
2022/04/16 03:02:55;;;;;;;;;;;6.90;99.90;;;;;;5019841;28;19936;-74
2022/04/16 03:05:22;;;;;;;;;;;6.90;99.90;;;;;;4983586;28;20018;-73
2022/04/16 03:07:50;;;;;;;;;;;6.80;99.90;;;;;;4985961;28;19926;-73
2022/04/16 03:10:17;;;;;;;;;;;6.80;99.90;;;;;;5019283;28;19925;-73
2022/04/16 03:12:45;;;;;;;;;;;6.70;99.90;;;;;;5019872;28;20328;-73
2022/04/16 03:17:57;;;;;;;;;;;6.70;99.90;;;;;;4987317;28;19933;-74
2022/04/16 03:20:30;;;;;;;;;;;6.70;99.90;;;;;;4986786;28;20020;-72
2022/04/16 03:22:58;;;;;;;;;;;6.70;99.90;;;;;;4995569;28;20377;-76
2022/04/16 03:25:25;;;;;;;;;;;6.70;99.90;;;;;;4991181;28;20294;-75
2022/04/16 03:27:51;;;;;;;;;;;6.70;99.90;;;;;;5010565;28;19926;-74
2022/04/16 03:30:18;;;;;;;;;;;6.70;99.90;;;;;;5023937;28;19924;-73
2022/04/16 03:32:46;;;;;;;;;;;6.70;99.90;;;;;;5014101;28;19930;-74
2022/04/16 03:35:13;;;;;;;;;;;6.60;99.90;;;;;;4994022;28;20396;-75
2022/04/16 03:37:40;;;;;;;;;;;6.60;99.90;;;;;;4985087;28;20412;-75
2022/04/16 03:40:09;;;;;;;;;;;6.60;99.90;;;;;;5024510;28;20301;-75
2022/04/16 03:42:35;;;;;;;;;;;6.50;99.90;;;;;;4987975;28;19926;-76
2022/04/16 03:45:02;;;;;;;;;;;6.50;99.90;;;;;;4983940;28;20378;-75
2022/04/16 03:47:29;;;;;;;;;;;6.60;99.90;;;;;;4979531;28;20381;-75
2022/04/16 03:49:56;;;;;;;;;;;6.50;99.90;;;;;;4974232;28;20005;-75
2022/04/16 03:52:22;;;;;;;;;;;6.50;99.90;;;;;;4988390;28;19958;-75
2022/04/16 04:00:27;;;;;;;;;;;6.40;99.90;;;;;;4983011;28;20434;-74
2022/04/16 04:02:53;;;;;;;;;;;6.40;99.90;;;;;;5006166;28;20444;-75
2022/04/16 04:05:20;;;;;;;;;;;6.40;99.90;;;;;;4986930;28;19926;-75
2022/04/16 04:07:47;;;;;;;;;;;6.40;99.90;;;;;;4991350;28;19965;-75
2022/04/16 04:10:14;;;;;;;;;;;6.40;99.90;;;;;;5006971;28;19930;-74
2022/04/16 04:12:41;;;;;;;;;;;6.40;99.90;;;;;;4987058;28;19926;-75
2022/04/16 04:15:10;;;;;;;;;;;6.40;99.90;;;;;;4983620;28;19940;-76
2022/04/16 04:17:37;;;;;;;;;;;6.30;99.90;;;;;;4977486;28;19934;-75
2022/04/16 04:20:04;;;;;;;;;;;6.40;99.90;;;;;;4983997;28;19926;-75
2022/04/16 04:22:31;;;;;;;;;;;6.30;99.90;;;;;;5004186;28;19933;-75
2022/04/16 04:25:00;;;;;;;;;;;6.40;99.90;;;;;;5009911;28;20444;-74
2022/04/16 04:27:27;;;;;;;;;;;6.30;99.90;;;;;;4988246;28;19926;-74
2022/04/16 04:29:53;;;;;;;;;;;6.30;99.90;;;;;;4994920;28;20024;-74
2022/04/16 04:32:21;;;;;;;;;;;6.30;99.90;;;;;;4987222;28;20021;-75
2022/04/16 04:34:48;;;;;;;;;;;6.20;99.90;;;;;;5033421;28;19924;-75
2022/04/16 04:37:15;;;;;;;;;;;6.30;99.90;;;;;;4983144;28;19926;-74
2022/04/16 04:39:42;;;;;;;;;;;6.30;99.90;;;;;;4994357;28;19971;-75
2022/04/16 04:42:08;;;;;;;;;;;6.30;99.90;;;;;;4985600;28;19979;-75
2022/04/16 04:44:35;;;;;;;;;;;6.30;99.90;;;;;;5013620;28;20419;-74
2022/04/16 04:47:04;;;;;;;;;;;6.30;99.90;;;;;;5000327;28;19939;-75
2022/04/16 04:49:32;;;;;;;;;;;6.20;99.90;;;;;;4998962;28;20016;-77
2022/04/16 04:51:59;;;;;;;;;;;6.20;99.90;;;;;;4984064;28;19934;-76
2022/04/16 04:54:25;;;;;;;;;;;6.30;99.90;;;;;;4992337;28;19981;-76
2022/04/16 04:56:52;;;;;;;;;;;6.20;99.90;;;;;;5004208;28;19963;-74
2022/04/16 04:59:21;;;;;;;;;;;6.20;99.90;;;;;;4983990;28;19964;-74
2022/04/16 05:01:48;;;;;;;;;;;6.20;99.90;;;;;;4986752;28;20385;-74
2022/04/16 05:04:16;;;;;;;;;;;6.20;99.90;;;;;;5007989;28;19932;-74
2022/04/16 05:06:44;;;;;;;;;;;6.20;99.90;;;;;;4984704;28;19933;-74
2022/04/16 05:09:11;;;;;;;;;;;6.20;99.90;;;;;;4993648;28;19926;-73
2022/04/16 05:11:38;;;;;;;;;;;6.20;99.90;;;;;;4986693;28;19926;-75
2022/04/16 05:14:04;;;;;;;;;;;6.30;99.90;;;;;;4988903;28;20304;-75
2022/04/16 05:16:31;;;;;;;;;;;6.30;99.90;;;;;;4989824;28;19995;-75
2022/04/16 05:18:58;;;;;;;;;;;6.30;99.90;;;;;;4989147;28;19926;-76
2022/04/16 05:21:24;;;;;;;;;;;6.30;99.90;;;;;;4996919;28;19926;-75
2022/04/16 05:23:52;;;;;;;;;;;6.30;99.90;;;;;;4981935;28;19970;-73
2022/04/16 05:26:19;;;;;;;;;;;6.30;99.90;;;;;;4985857;28;19932;-75
2022/04/16 05:28:46;;;;;;;;;;;6.40;99.90;;;;;;4982520;28;20013;-76
2022/04/16 05:31:13;;;;;;;;;;;6.40;99.90;;;;;;4971268;28;19932;-76
2022/04/16 05:36:24;;;;;;;;;;;6.50;99.90;;;;;;4979875;28;19994;-76
2022/04/16 05:38:51;;;;;;;;;;;6.60;99.90;;;;;;4982893;28;20009;-75
2022/04/16 05:41:19;;;;;;;;;;;6.60;99.90;;;;;;4975636;28;20029;-77
2022/04/16 05:43:45;;;;;;;;;;;6.70;99.90;;;;;;4981384;28;19934;-75
2022/04/16 05:46:12;;;;;;;;;;;6.70;99.90;;;;;;4974578;28;19926;-76
2022/04/16 05:48:38;;;;;;;;;;;6.80;99.90;;;;;;4990786;28;19932;-75
2022/04/16 05:51:05;;;;;;;;;;;6.80;99.90;;;;;;5022769;28;19932;-75
2022/04/16 05:53:32;;;;;;;;;;;6.90;99.90;;;;;;5000717;28;19940;-76
2022/04/16 05:55:59;;;;;;;;;;;6.90;99.90;;;;;;5012393;28;19926;-76
2022/04/16 05:58:27;;;;;;;;;;;7.00;99.90;;;;;;4987949;28;19932;-75
2022/04/16 06:00:54;;;;;;;;;;;7.00;99.90;;;;;;4999300;28;20296;-75
2022/04/16 06:03:21;;;;;;;;;;;7.00;99.90;;;;;;4983510;28;19937;-75
2022/04/16 06:05:48;;;;;;;;;;;7.10;99.90;;;;;;4986742;28;20017;-75
2022/04/16 06:08:15;;;;;;;;;;;7.10;99.90;;;;;;4989799;28;19929;-74
2022/04/16 06:10:41;;;;;;;;;;;7.20;99.90;;;;;;4977490;28;20029;-74
2022/04/16 06:13:08;;;;;;;;;;;7.30;99.90;;;;;;4981629;28;19926;-75
2022/04/16 06:15:36;;;;;;;;;;;7.30;99.90;;;;;;4971515;28;19926;-74
2022/04/16 06:18:03;;;;;;;;;;;7.40;99.90;;;;;;4980364;28;19969;-74
2022/04/16 06:20:29;;;;;;;;;;;7.40;99.90;;;;;;4980343;28;20033;-74
2022/04/16 06:22:56;;;;;;;;;;;7.40;99.90;;;;;;4987502;28;20449;-75
2022/04/16 06:25:24;;;;;;;;;;;7.50;99.90;;;;;;4987469;28;19926;-75
2022/04/16 06:27:51;;;;;;;;;;;7.60;99.90;;;;;;4981778;28;19933;-75
2022/04/16 06:30:17;;;;;;;;;;;7.50;99.90;;;;;;4982328;28;19933;-75
2022/04/16 06:32:45;;;;;;;;;;;7.60;99.90;;;;;;4977350;28;19932;-77
2022/04/16 06:35:12;;;;;;;;;;;7.70;99.90;;;;;;4977323;28;20017;-75
2022/04/16 06:37:39;;;;;;;;;;;7.70;99.90;;;;;;4976960;28;20405;-75
2022/04/16 06:40:07;;;;;;;;;;;7.80;99.90;;;;;;4974804;28;19926;-75
2022/04/16 06:42:33;;;;;;;;;;;7.90;99.90;;;;;;4980372;28;20408;-75
2022/04/16 06:45:00;;;;;;;;;;;8.00;99.90;;;;;;4974070;28;20427;-75
2022/04/16 06:47:29;;;;;;;;;;;8.00;99.90;;;;;;4982144;28;19926;-75
2022/04/16 06:49:57;;;;;;;;;;;8.10;99.90;;;;;;4977679;28;19926;-75
2022/04/16 06:52:24;;;;;;;;;;;8.10;99.90;;;;;;4985426;28;19926;-76
2022/04/16 06:54:51;;;;;;;;;;;8.20;99.90;;;;;;4973925;28;19937;-75
2022/04/16 06:57:18;;;;;;;;;;;8.30;99.90;;;;;;4972942;28;19934;-75
2022/04/16 06:59:44;;;;;;;;;;;8.30;99.90;;;;;;4990370;28;20365;-75
2022/04/16 07:02:11;;;;;;;;;;;8.50;99.90;;;;;;5019142;28;20337;-76
2022/04/16 07:04:38;;;;;;;;;;;8.50;99.90;;;;;;4983874;28;19926;-75
2022/04/16 07:07:08;;;;;;;;;;;8.60;99.90;;;;;;4980015;28;19932;-75
2022/04/16 07:09:38;;;;;;;;;;;8.70;99.90;;;;;;5027291;28;19926;-72
2022/04/16 07:12:05;;;;;;;;;;;8.70;99.90;;;;;;4971465;28;20324;-72
2022/04/16 07:14:33;;;;;;;;;;;8.70;99.90;;;;;;5008715;28;19933;-72
2022/04/16 07:17:00;;;;;;;;;;;8.90;99.90;;;;;;5041987;28;19924;-72
2022/04/16 07:19:26;;;;;;;;;;;9.00;99.90;;;;;;5011418;28;19926;-73
2022/04/16 07:21:54;;;;;;;;;;;9.10;99.90;;;;;;4979380;28;20380;-73
2022/04/16 07:24:22;;;;;;;;;;;10.20;99.90;;;;;;4971460;28;20419;-73
2022/04/16 07:26:48;;;;;;;;;;;11.50;99.90;;;;;;4971810;28;19926;-73
2022/04/16 07:29:16;;;;;;;;;;;12.60;96.90;;;;;;4982713;28;20369;-73
2022/04/16 07:31:43;;;;;;;;;;;14.00;92.70;;;;;;4979793;28;20433;-74
2022/04/16 07:34:09;;;;;;;;;;;15.10;82.90;;;;;;4991874;28;20490;-70
2022/04/16 07:36:36;;;;;;;;;;;14.80;80.10;;;;;;4992993;28;19926;-70
2022/04/16 07:39:03;;;;;;;;;;;15.70;74.00;;;;;;5013220;28;19927;-72
2022/04/16 07:41:31;;;;;;;;;;;14.40;76.20;;;;;;5018767;28;19926;-72
2022/04/16 07:44:03;;;;;;;;;;;14.10;79.50;;;;;;4972777;28;19926;-73
2022/04/16 07:46:29;;;;;;;;;;;14.90;74.80;;;;;;4971467;28;19930;-71
2022/04/16 07:48:57;;;;;;;;;;;14.70;71.20;;;;;;4999794;28;21179;-72
2022/04/16 07:51:24;;;;;;;;;;;14.30;73.00;;;;;;4968614;28;19927;-72
2022/04/16 07:53:51;;;;;;;;;;;13.80;76.80;;;;;;5009679;28;19927;-71
2022/04/16 07:56:17;;;;;;;;;;;13.90;75.30;;;;;;4968344;28;19932;-72
2022/04/16 07:58:45;;;;;;;;;;;14.80;75.70;;;;;;4973878;28;20017;-72
2022/04/16 08:01:12;;;;;;;;;;;15.50;68.50;;;;;;4986233;28;19926;-71
2022/04/16 08:03:39;;;;;;;;;;;14.20;71.20;;;;;;4977641;28;20020;-71
2022/04/16 08:06:06;;;;;;;;;;;14.70;71.20;;;;;;5027731;28;19929;-71
2022/04/16 08:08:32;;;;;;;;;;;15.90;68.90;;;;;;4977337;28;19932;-71
2022/04/16 08:10:59;;;;;;;;;;;15.80;65.70;;;;;;5008703;28;19926;-72
2022/04/16 08:13:26;;;;;;;;;;;15.20;67.10;;;;;;4975445;28;20029;-70
2022/04/16 08:15:54;;;;;;;;;;;16.80;63.30;;;;;;5001998;28;19969;-71
2022/04/16 08:18:21;;;;;;;;;;;16.10;63.10;;;;;;4975878;28;19930;-71
2022/04/16 08:20:47;;;;;;;;;;;15.90;60.20;;;;;;5002017;28;19926;-71
2022/04/16 08:23:14;;;;;;;;;;;16.10;61.30;;;;;;4982220;28;20020;-72
2022/04/16 08:25:47;;;;;;;;;;;15.50;63.40;;;;;;5012522;28;19933;-72
2022/04/16 08:28:14;;;;;;;;;;;16.60;60.20;;;;;;4972597;28;19937;-72
2022/04/16 08:30:41;;;;;;;;;;;16.20;58.20;;;;;;4987327;28;19972;-71
2022/04/16 08:33:14;;;;;;;;;;;16.10;57.50;;;;;;4981533;28;19933;-71
2022/04/16 08:35:42;;;;;;;;;;;15.80;60.10;;;;;;4973996;28;19926;-72
2022/04/16 08:38:09;;;;;;;;;;;15.40;61.80;;;;;;4976706;28;20009;-73
2022/04/16 08:40:36;;;;;;;;;;;15.60;60.70;;;;;;4996578;28;19930;-73
2022/04/16 08:43:04;;;;;;;;;;;16.80;55.50;;;;;;4978602;28;19926;-71
2022/04/16 08:45:31;;;;;;;;;;;17.40;53.60;;;;;;4990734;28;19926;-71
2022/04/16 08:47:58;;;;;;;;;;;18.10;52.10;;;;;;4978758;28;19933;-71
2022/04/16 08:50:26;;;;;;;;;;;20.00;46.00;;;;;;4983725;28;19925;-72
2022/04/16 08:52:53;;;;;;;;;;;18.90;44.40;;;;;;4979857;28;19940;-70
2022/04/16 08:55:20;;;;;;;;;;;17.80;46.20;;;;;;4982564;28;19932;-70
2022/04/16 08:57:46;;;;;;;;;;;16.70;47.00;;;;;;4975341;28;19930;-69
2022/04/16 09:00:14;;;;;;;;;;;15.90;49.20;;;;;;5010753;28;19927;-70
2022/04/16 09:02:50;;;;;;;;;;;17.10;48.60;;;;;;4975746;28;20300;-71
2022/04/16 09:05:18;;;;;;;;;;;16.50;49.60;;;;;;4991864;28;20020;-71
2022/04/16 09:07:46;;;;;;;;;;;16.30;49.00;;;;;;4983383;28;19949;-71
2022/04/16 09:10:13;;;;;;;;;;;16.80;45.80;;;;;;4980135;28;19926;-71
2022/04/16 09:12:40;;;;;;;;;;;17.60;43.40;;;;;;4981131;28;19933;-72
2022/04/16 09:15:08;;;;;;;;;;;17.80;43.00;;;;;;4981847;28;19976;-69
2022/04/16 09:17:34;;;;;;;;;;;16.40;45.30;;;;;;4978328;28;19933;-70
2022/04/16 09:20:01;;;;;;;;;;;17.40;43.40;;;;;;4978984;28;19949;-71
2022/04/16 09:22:32;;;;;;;;;;;16.60;42.40;;;;;;4979256;28;19933;-70
2022/04/16 09:25:00;;;;;;;;;;;16.50;44.70;;;;;;4972081;28;20416;-68
2022/04/16 09:27:27;;;;;;;;;;;16.60;44.50;;;;;;4970454;28;20277;-71
2022/04/16 09:29:54;;;;;;;;;;;18.20;40.00;;;;;;4982109;28;19934;-70
2022/04/16 09:32:25;;;;;;;;;;;18.40;38.70;;;;;;4967770;28;20335;-70
2022/04/16 09:34:52;;;;;;;;;;;17.20;38.80;;;;;;4967971;28;19926;-71
2022/04/16 09:37:19;;;;;;;;;;;16.20;40.10;;;;;;4969038;28;19926;-72
2022/04/16 09:39:45;;;;;;;;;;;15.70;42.10;;;;;;4977443;28;20019;-70
2022/04/16 09:42:13;;;;;;;;;;;15.80;43.10;;;;;;4989135;28;20037;-70
2022/04/16 09:44:42;;;;;;;;;;;16.50;41.30;;;;;;4974553;28;19932;-70
2022/04/16 09:47:09;;;;;;;;;;;17.00;41.30;;;;;;4969913;28;19926;-71
2022/04/16 09:49:39;;;;;;;;;;;17.40;37.50;;;;;;4984627;28;19995;-71
2022/04/16 09:52:06;;;;;;;;;;;17.40;35.40;;;;;;5019192;28;19933;-71
2022/04/16 09:54:34;;;;;;;;;;;17.40;32.60;;;;;;4969939;28;20489;-71
2022/04/16 09:57:01;;;;;;;;;;;16.50;34.30;;;;;;4985710;28;20054;-71
2022/04/16 09:59:32;;;;;;;;;;;17.20;33.00;;;;;;4986348;28;19940;-71
2022/04/16 10:01:59;;;;;;;;;;;16.90;32.30;;;;;;5002947;28;19924;-69
2022/04/16 10:04:26;;;;;;;;;;;16.10;35.00;;;;;;4985249;28;19926;-71
2022/04/16 10:06:53;;;;;;;;;;;15.30;36.50;;;;;;4983783;28;20289;-72
2022/04/16 10:09:22;;;;;;;;;;;14.90;38.70;;;;;;4999079;28;19931;-72
2022/04/16 10:14:42;;;;;;;;;;;15.10;38.70;;;;;;4978416;28;19943;-69
2022/04/16 10:17:13;;;;;;;;;;;15.40;38.10;;;;;;4991759;28;19936;-70
2022/04/16 10:19:40;;;;;;;;;;;15.80;37.20;;;;;;4973033;28;19945;-70
2022/04/16 10:22:07;;;;;;;;;;;15.80;36.90;;;;;;4980326;28;19940;-70
2022/04/16 10:24:33;;;;;;;;;;;15.80;37.50;;;;;;4991101;28;20434;-68
2022/04/16 10:27:03;;;;;;;;;;;16.30;37.70;;;;;;5040474;28;19925;-70
2022/04/16 10:29:37;;;;;;;;;;;16.10;37.40;;;;;;4978816;28;19933;-70
2022/04/16 10:32:14;;;;;;;;;;;15.30;37.50;;;;;;4974187;28;20029;-71
2022/04/16 10:34:40;;;;;;;;;;;15.10;38.90;;;;;;4998489;28;20050;-71
2022/04/16 10:37:08;;;;;;;;;;;15.00;39.50;;;;;;5046732;28;19930;-71
2022/04/16 10:39:36;;;;;;;;;;;15.30;40.10;;;;;;4980502;28;20005;-71
2022/04/16 10:42:04;;;;;;;;;;;15.40;37.80;;;;;;5000635;28;20450;-71
2022/04/16 10:44:31;;;;;;;;;;;15.30;38.10;;;;;;4973085;28;20308;-72
2022/04/16 10:47:00;;;;;;;;;;;15.10;37.00;;;;;;4995188;28;20361;-72
2022/04/16 10:49:27;;;;;;;;;;;14.90;37.50;;;;;;4985252;28;19933;-71
2022/04/16 10:51:57;;;;;;;;;;;15.20;36.80;;;;;;4979573;28;20284;-70
2022/04/16 10:54:32;;;;;;;;;;;15.50;35.80;;;;;;4986196;28;19932;-71
2022/04/16 10:56:59;;;;;;;;;;;15.40;35.50;;;;;;4988397;28;19925;-72
2022/04/16 10:59:35;;;;;;;;;;;15.50;36.30;;;;;;4997108;28;19934;-73
2022/04/16 11:02:14;;;;;;;;;;;15.60;38.50;;;;;;4984264;28;20020;-71
2022/04/16 11:04:41;;;;;;;;;;;15.20;37.50;;;;;;4990046;28;19930;-72
2022/04/16 11:07:10;;;;;;;;;;;15.50;37.00;;;;;;4990171;28;19940;-72
2022/04/16 11:09:38;;;;;;;;;;;15.80;35.10;;;;;;4990939;28;19984;-72
2022/04/16 11:12:05;;;;;;;;;;;15.90;34.70;;;;;;5006927;28;20385;-71
2022/04/16 11:14:32;;;;;;;;;;;15.90;34.90;;;;;;4982160;28;20281;-70
2022/04/16 11:17:03;;;;;;;;;;;15.70;34.60;;;;;;4983616;28;19926;-70
2022/04/16 11:19:31;;;;;;;;;;;15.20;35.60;;;;;;4989757;28;20850;-70
2022/04/16 11:21:58;;;;;;;;;;;15.60;35.80;;;;;;5000581;28;20355;-71
2022/04/16 11:24:25;;;;;;;;;;;15.60;36.60;;;;;;4979577;28;19926;-71
2022/04/16 11:35:14;;;;;;;;;;;15.40;35.20;;;;;;4985649;28;19968;-71
2022/04/16 11:37:41;;;;;;;;;;;15.70;36.50;;;;;;4987778;28;20473;-72
2022/04/16 11:40:09;;;;;;;;;;;15.70;35.70;;;;;;4995311;28;19937;-71
2022/04/16 11:42:36;;;;;;;;;;;15.40;34.40;;;;;;4983882;28;20078;-71
2022/04/16 11:45:05;;;;;;;;;;;15.20;34.20;;;;;;5007639;28;20017;-72
2022/04/16 11:47:36;;;;;;;;;;;15.60;35.30;;;;;;5003531;28;20025;-71
2022/04/16 11:50:06;;;;;;;;;;;15.60;35.00;;;;;;4991790;28;20419;-71
2022/04/16 11:52:34;;;;;;;;;;;15.50;34.40;;;;;;4982850;28;19980;-71
2022/04/16 11:55:02;;;;;;;;;;;15.40;35.20;;;;;;4983921;28;19943;-72
2022/04/16 11:57:28;;;;;;;;;;;15.40;35.50;;;;;;4985875;28;20373;-71
2022/04/16 11:59:58;;;;;;;;;;;15.70;35.60;;;;;;4979836;28;19933;-71
2022/04/16 12:02:34;;;;;;;;;;;15.90;34.00;;;;;;4983525;28;19937;-71
2022/04/16 12:05:08;;;;;;;;;;;15.80;34.10;;;;;;4984139;28;19933;-72
2022/04/16 12:07:37;;;;;;;;;;;15.70;34.00;;;;;;4981354;28;20376;-72
2022/04/16 12:10:05;;;;;;;;;;;15.60;33.50;;;;;;4985883;28;19936;-71
2022/04/16 12:12:41;;;;;;;;;;;15.80;34.20;;;;;;4985926;28;19970;-72
2022/04/16 12:15:08;;;;;;;;;;;15.70;33.10;;;;;;4983829;28;20286;-72
2022/04/16 12:17:38;;;;;;;;;;;15.90;34.40;;;;;;4981333;28;19930;-72
2022/04/16 12:20:06;;;;;;;;;;;15.90;33.00;;;;;;4980004;28;19926;-69
2022/04/16 12:22:34;;;;;;;;;;;16.00;33.30;;;;;;4978722;28;19936;-71
2022/04/16 12:25:12;;;;;;;;;;;16.10;33.40;;;;;;4984284;28;19998;-73
2022/04/16 12:27:43;;;;;;;;;;;16.10;34.40;;;;;;4980372;28;20459;-72
2022/04/16 12:30:12;;;;;;;;;;;16.20;32.10;;;;;;4983340;28;20482;-70
2022/04/16 12:32:41;;;;;;;;;;;16.60;31.40;;;;;;4992082;28;20385;-70
2022/04/16 12:35:08;;;;;;;;;;;16.30;32.10;;;;;;4978510;28;19936;-70
2022/04/16 12:37:35;;;;;;;;;;;16.10;32.60;;;;;;5010398;28;19934;-71
2022/04/16 12:40:01;;;;;;;;;;;16.00;35.10;;;;;;4983519;28;19926;-71
2022/04/16 12:42:34;;;;;;;;;;;16.40;34.90;;;;;;4990159;28;19932;-71
2022/04/16 12:45:01;;;;;;;;;;;16.40;33.10;;;;;;4982902;28;20396;-70
2022/04/16 12:47:27;;;;;;;;;;;16.50;32.40;;;;;;5012823;28;19934;-70
2022/04/16 12:49:54;;;;;;;;;;;16.10;32.00;;;;;;4980988;28;20452;-70
2022/04/16 12:52:23;;;;;;;;;;;16.00;31.90;;;;;;4983871;28;19926;-70
2022/04/16 12:54:50;;;;;;;;;;;16.30;34.50;;;;;;4978465;28;19991;-70
2022/04/16 12:57:17;;;;;;;;;;;16.70;30.50;;;;;;4978552;28;19934;-70
2022/04/16 12:59:45;;;;;;;;;;;16.60;30.20;;;;;;4972271;28;19926;-70
2022/04/16 13:02:12;;;;;;;;;;;16.60;30.30;;;;;;4975253;28;20017;-71
2022/04/16 13:04:39;;;;;;;;;;;16.80;30.60;;;;;;4972757;28;20029;-70
2022/04/16 13:07:08;;;;;;;;;;;16.80;30.50;;;;;;4974000;28;20025;-70
2022/04/16 13:09:34;;;;;;;;;;;17.10;31.00;;;;;;4970403;28;19926;-70
2022/04/16 13:12:01;;;;;;;;;;;17.20;29.90;;;;;;4977744;28;19926;-70
2022/04/16 13:14:28;;;;;;;;;;;16.90;30.80;;;;;;4972904;28;19926;-70
2022/04/16 13:16:56;;;;;;;;;;;16.80;33.40;;;;;;4976104;28;19980;-70
2022/04/16 13:19:23;;;;;;;;;;;16.70;31.60;;;;;;4979098;28;20017;-71
2022/04/16 13:21:50;;;;;;;;;;;16.40;32.60;;;;;;4972190;28;19934;-71
2022/04/16 13:24:18;;;;;;;;;;;16.90;30.20;;;;;;4974858;28;19957;-69
2022/04/16 13:26:45;;;;;;;;;;;17.30;28.10;;;;;;4972929;28;19938;-71
2022/04/16 13:29:12;;;;;;;;;;;17.30;28.90;;;;;;4979316;28;19933;-70
2022/04/16 13:31:41;;;;;;;;;;;17.20;28.70;;;;;;4977860;28;19933;-70
2022/04/16 13:34:09;;;;;;;;;;;17.20;29.80;;;;;;4979683;28;20300;-70
2022/04/16 13:36:36;;;;;;;;;;;16.60;29.20;;;;;;4991385;28;20596;-71
2022/04/16 13:39:04;;;;;;;;;;;16.60;29.60;;;;;;4979665;28;20014;-71
2022/04/16 13:41:39;;;;;;;;;;;16.80;30.00;;;;;;4985590;28;19927;-69
2022/04/16 13:44:06;;;;;;;;;;;17.10;30.70;;;;;;4981512;28;19984;-69
2022/04/16 13:46:33;;;;;;;;;;;17.50;26.90;;;;;;4980097;28;19927;-70
2022/04/16 13:49:00;;;;;;;;;;;17.50;28.20;;;;;;4979614;28;19941;-69
2022/04/16 13:51:28;;;;;;;;;;;17.40;27.00;;;;;;4982251;28;20385;-70
2022/04/16 13:53:54;;;;;;;;;;;17.50;27.30;;;;;;4993156;28;19932;-70
2022/04/16 13:56:21;;;;;;;;;;;17.10;27.20;;;;;;4985443;28;20327;-70
2022/04/16 13:58:48;;;;;;;;;;;17.00;27.50;;;;;;4977663;28;19951;-71
2022/04/16 14:01:17;;;;;;;;;;;17.30;27.80;;;;;;4975904;28;19930;-70
2022/04/16 14:03:44;;;;;;;;;;;17.20;27.00;;;;;;4974147;28;20002;-70
2022/04/16 14:06:11;;;;;;;;;;;17.10;27.60;;;;;;4990053;28;20208;-70
2022/04/16 14:08:40;;;;;;;;;;;17.00;26.90;;;;;;4996682;28;19926;-70
2022/04/16 14:11:06;;;;;;;;;;;17.10;26.70;;;;;;5005478;28;19928;-68
2022/04/16 14:13:33;;;;;;;;;;;17.40;26.30;;;;;;4998488;28;19925;-69
2022/04/16 14:16:01;;;;;;;;;;;17.30;26.50;;;;;;4999658;28;19965;-71
2022/04/16 14:18:28;;;;;;;;;;;16.90;26.70;;;;;;5030418;28;19949;-70
2022/04/16 14:20:55;;;;;;;;;;;16.80;26.50;;;;;;5001844;28;20007;-71
2022/04/16 14:23:21;;;;;;;;;;;17.20;25.30;;;;;;5012394;28;19950;-69
2022/04/16 14:25:50;;;;;;;;;;;17.60;24.80;;;;;;5007441;28;20593;-70
2022/04/16 14:28:16;;;;;;;;;;;17.60;23.60;;;;;;5034412;28;20015;-69
2022/04/16 14:30:43;;;;;;;;;;;17.60;23.20;;;;;;4980618;28;19926;-70
2022/04/16 14:33:10;;;;;;;;;;;17.50;24.80;;;;;;4977760;28;20013;-70
2022/04/16 14:35:37;;;;;;;;;;;17.40;25.50;;;;;;4986315;28;19965;-71
2022/04/16 14:38:10;;;;;;;;;;;17.50;25.40;;;;;;4988366;28;20790;-70
2022/04/16 14:40:37;;;;;;;;;;;17.10;25.40;;;;;;4977651;28;19926;-72
2022/04/16 14:43:07;;;;;;;;;;;17.10;24.00;;;;;;5001503;28;20413;-69
2022/04/16 14:45:34;;;;;;;;;;;17.50;24.70;;;;;;5004856;28;19932;-70
2022/04/16 14:48:01;;;;;;;;;;;17.40;22.90;;;;;;5017349;28;19933;-70
2022/04/16 14:50:28;;;;;;;;;;;17.30;23.10;;;;;;4990830;28;19930;-71